createdAt,value
2018-01-21T00:01:20.326Z,1.74
2018-01-21T00:03:47.764Z,1.80
2018-01-21T00:06:15.400Z,1.74
2018-01-21T00:08:42.850Z,1.71
2018-01-21T00:11:10.297Z,1.75
2018-01-21T00:13:38.236Z,1.90
2018-01-21T00:16:05.694Z,1.71
2018-01-21T00:18:33.149Z,1.69
2018-01-21T00:21:00.932Z,1.69
2018-01-21T00:23:28.389Z,1.65
2018-01-21T00:25:55.847Z,1.72
2018-01-21T00:28:23.618Z,1.64
2018-01-21T00:30:52.510Z,1.82
2018-01-21T00:33:19.956Z,2.06
2018-01-21T00:35:48.182Z,1.87
2018-01-21T00:38:15.996Z,2.08
2018-01-21T00:40:43.463Z,2.03
2018-01-21T00:43:11.448Z,2.09
2018-01-21T00:45:38.902Z,2.06
2018-01-21T00:48:06.356Z,2.20
2018-01-21T00:50:34.133Z,2.03
2018-01-21T00:53:01.593Z,1.84
2018-01-21T00:55:29.048Z,1.86
2018-01-21T00:57:56.822Z,2.09
2018-01-21T01:00:24.277Z,2.17
2018-01-21T01:02:51.733Z,2.15
2018-01-21T01:05:19.815Z,2.26
2018-01-21T01:07:47.284Z,2.31
2018-01-21T01:10:14.747Z,2.28
2018-01-21T01:12:43.115Z,2.32
2018-01-21T01:15:10.573Z,2.30
2018-01-21T01:17:38.024Z,2.34
2018-01-21T01:20:05.805Z,2.31
2018-01-21T01:22:33.262Z,2.43
2018-01-21T01:25:00.713Z,2.40
2018-01-21T01:27:28.499Z,2.18
2018-01-21T01:34:30.905Z,2.30
2018-01-21T01:36:58.353Z,2.38
2018-01-21T01:39:26.823Z,2.30
2018-01-21T01:41:54.672Z,2.28
2018-01-21T01:44:22.124Z,2.21
2018-01-21T01:46:49.584Z,2.14
2018-01-21T01:49:17.513Z,2.27
2018-01-21T01:51:44.969Z,2.34
2018-01-21T01:54:12.433Z,2.33
2018-01-21T01:56:40.498Z,2.27
2018-01-21T01:59:07.956Z,2.12
2018-01-21T02:01:35.417Z,2.19
2018-01-21T02:04:03.188Z,2.36
2018-01-21T02:06:30.640Z,2.30
2018-01-21T02:08:58.088Z,2.25
2018-01-21T02:11:25.880Z,2.38
2018-01-21T02:13:53.332Z,2.45
2018-01-21T02:16:20.789Z,2.37
2018-01-21T02:18:48.556Z,2.29
2018-01-21T02:21:16.010Z,2.26
2018-01-21T02:23:43.461Z,2.31
2018-01-21T02:26:11.563Z,2.41
2018-01-21T02:28:39.018Z,2.29
2018-01-21T02:31:06.476Z,2.27
2018-01-21T02:33:34.244Z,2.42
2018-01-21T02:36:01.700Z,2.36
2018-01-21T02:38:29.165Z,2.38
2018-01-21T02:40:57.697Z,2.15
2018-01-21T02:43:25.161Z,2.02
2018-01-21T02:45:52.620Z,2.02
2018-01-21T02:48:20.536Z,2.12
2018-01-21T02:50:47.985Z,2.10
2018-01-21T02:53:15.438Z,1.99
2018-01-21T02:55:43.236Z,1.94
2018-01-21T02:58:10.692Z,1.89
2018-01-21T03:00:38.148Z,1.92
2018-01-21T03:03:05.909Z,1.97
2018-01-21T03:05:33.377Z,1.93
2018-01-21T03:08:00.840Z,1.94
2018-01-21T03:10:28.596Z,1.98
2018-01-21T03:12:56.040Z,1.91
2018-01-21T03:15:23.496Z,1.94
2018-01-21T03:17:51.248Z,1.85
2018-01-21T03:20:18.709Z,1.89
2018-01-21T03:22:46.165Z,1.72
2018-01-21T03:25:13.974Z,1.73
2018-01-21T03:27:41.424Z,1.76
2018-01-21T03:30:08.881Z,1.75
2018-01-21T03:32:36.974Z,1.75
2018-01-21T03:35:04.433Z,1.68
2018-01-21T03:37:31.895Z,1.61
2018-01-21T03:40:00.568Z,1.63
2018-01-21T03:42:28.029Z,1.60
2018-01-21T03:44:55.488Z,1.70
2018-01-21T03:47:23.266Z,1.65
2018-01-21T03:49:50.728Z,1.61
2018-01-21T03:52:18.197Z,1.63
2018-01-21T03:54:46.876Z,1.59
2018-01-21T03:57:14.336Z,1.56
2018-01-21T03:59:41.808Z,1.58
2018-01-21T04:02:09.860Z,1.52
2018-01-21T04:04:37.320Z,1.53
2018-01-21T04:07:04.781Z,1.57
2018-01-21T04:09:33.371Z,1.56
2018-01-21T04:12:00.824Z,1.59
2018-01-21T04:14:28.282Z,1.71
2018-01-21T04:16:56.138Z,1.67
2018-01-21T04:19:23.596Z,1.66
2018-01-21T04:21:51.059Z,1.65
2018-01-21T04:24:19.124Z,1.62
2018-01-21T04:26:46.580Z,1.61
2018-01-21T04:29:14.037Z,1.69
2018-01-21T04:31:41.845Z,1.64
2018-01-21T04:34:09.305Z,1.65
2018-01-21T04:36:36.767Z,1.69
2018-01-21T04:39:04.536Z,1.65
2018-01-21T04:41:32.647Z,1.61
2018-01-21T04:44:00.101Z,1.64
2018-01-21T04:46:27.833Z,1.66
2018-01-21T04:48:55.321Z,1.63
2018-01-21T04:51:22.782Z,1.62
2018-01-21T04:53:50.449Z,1.65
2018-01-21T04:56:17.897Z,1.61
2018-01-21T04:58:45.352Z,1.63
2018-01-21T05:01:13.203Z,1.66
2018-01-21T05:03:40.660Z,1.61
2018-01-21T05:06:08.118Z,1.64
2018-01-21T05:08:35.895Z,1.64
2018-01-21T05:11:03.350Z,1.59
2018-01-21T05:13:30.806Z,1.66
2018-01-21T05:15:58.582Z,2.07
2018-01-21T05:18:26.044Z,1.95
2018-01-21T05:20:53.497Z,1.77
2018-01-21T05:23:21.261Z,1.76
2018-01-21T05:25:48.717Z,1.77
2018-01-21T05:28:16.165Z,1.78
2018-01-21T05:30:43.953Z,1.72
2018-01-21T05:33:11.406Z,1.72
2018-01-21T05:35:38.870Z,1.74
2018-01-21T05:38:06.648Z,1.73
2018-01-21T05:40:34.114Z,1.67
2018-01-21T05:43:01.641Z,1.57
2018-01-21T05:45:29.233Z,1.63
2018-01-21T05:47:56.693Z,1.66
2018-01-21T05:50:24.153Z,1.68
2018-01-21T05:52:52.064Z,1.69
2018-01-21T05:55:19.529Z,1.78
2018-01-21T05:57:46.987Z,1.70
2018-01-21T06:00:15.021Z,1.79
2018-01-21T06:02:42.477Z,1.88
2018-01-21T06:05:09.937Z,1.85
2018-01-21T06:07:37.689Z,1.87
2018-01-21T06:10:05.146Z,1.79
2018-01-21T06:12:32.598Z,1.77
2018-01-21T06:15:00.542Z,1.81
2018-01-21T06:17:27.992Z,1.80
2018-01-21T06:19:55.450Z,1.72
2018-01-21T06:22:23.697Z,1.70
2018-01-21T06:24:51.144Z,1.72
2018-01-21T06:27:18.616Z,1.64
2018-01-21T06:29:46.373Z,1.77
2018-01-21T06:32:13.829Z,1.70
2018-01-21T06:34:41.283Z,1.80
2018-01-21T06:37:09.060Z,1.81
2018-01-21T06:39:36.513Z,1.74
2018-01-21T06:42:03.963Z,1.70
2018-01-21T06:44:32.047Z,1.71
2018-01-21T06:46:59.509Z,1.74
2018-01-21T06:49:26.965Z,1.72
2018-01-21T06:51:54.734Z,1.70
2018-01-21T06:54:22.185Z,1.72
2018-01-21T06:56:49.637Z,1.74
2018-01-21T06:59:17.493Z,1.81
2018-01-21T07:01:44.952Z,1.83
2018-01-21T07:04:12.409Z,1.79
2018-01-21T07:06:40.160Z,1.85
2018-01-21T07:09:07.622Z,1.84
2018-01-21T07:11:35.080Z,1.86
2018-01-21T07:14:02.804Z,1.95
2018-01-21T07:16:30.257Z,1.87
2018-01-21T07:18:57.717Z,1.84
2018-01-21T07:21:26.097Z,1.86
2018-01-21T07:23:53.554Z,1.91
2018-01-21T07:26:21.005Z,1.92
2018-01-21T07:28:48.780Z,1.94
2018-01-21T07:31:16.233Z,1.90
2018-01-21T07:33:43.692Z,1.96
2018-01-21T07:36:11.479Z,1.96
2018-01-21T07:38:38.940Z,2.10
2018-01-21T07:41:06.416Z,2.03
2018-01-21T07:43:34.158Z,2.04
2018-01-21T07:46:02.001Z,2.00
2018-01-21T07:48:29.453Z,1.93
2018-01-21T07:50:57.468Z,1.90
2018-01-21T07:53:24.924Z,1.91
2018-01-21T07:55:52.382Z,1.95
2018-01-21T07:58:20.152Z,2.00
2018-01-21T08:00:47.617Z,1.95
2018-01-21T08:03:15.087Z,2.08
2018-01-21T08:05:42.780Z,2.05
2018-01-21T08:08:10.240Z,2.07
2018-01-21T08:10:37.699Z,2.10
2018-01-21T08:13:05.651Z,2.15
2018-01-21T08:15:33.116Z,2.14
2018-01-21T08:18:00.578Z,2.12
2018-01-21T08:20:28.512Z,2.16
2018-01-21T08:22:55.965Z,2.12
2018-01-21T08:25:23.415Z,2.19
2018-01-21T08:27:51.520Z,2.14
2018-01-21T08:30:18.977Z,2.19
2018-01-21T08:32:46.432Z,2.09
2018-01-21T08:35:19.730Z,2.17
2018-01-21T08:40:55.936Z,2.06
2018-01-21T08:43:23.405Z,2.13
2018-01-21T08:45:50.861Z,2.08
2018-01-21T08:48:20.957Z,2.09
2018-01-21T08:50:48.417Z,2.15
2018-01-21T08:53:15.877Z,2.21
2018-01-21T08:55:43.653Z,2.22
2018-01-21T08:58:11.117Z,2.17
2018-01-21T09:00:38.572Z,2.24
2018-01-21T09:03:06.328Z,2.34
2018-01-21T09:05:33.780Z,2.24
2018-01-21T09:08:01.235Z,2.36
2018-01-21T09:10:29.028Z,2.39
2018-01-21T09:12:56.480Z,2.45
2018-01-21T09:15:23.938Z,2.51
2018-01-21T09:17:51.702Z,2.61
2018-01-21T09:20:19.161Z,2.61
2018-01-21T09:22:46.608Z,2.74
2018-01-21T09:25:14.401Z,2.73
2018-01-21T09:27:41.856Z,2.84
2018-01-21T09:30:09.310Z,2.99
2018-01-21T09:32:37.083Z,2.98
2018-01-21T09:35:04.540Z,3.15
2018-01-21T09:37:31.996Z,3.42
2018-01-21T09:39:59.777Z,3.36
2018-01-21T09:42:27.231Z,3.48
2018-01-21T09:44:54.716Z,3.52
2018-01-21T09:47:22.752Z,3.48
2018-01-21T09:49:50.611Z,3.47
2018-01-21T09:52:18.065Z,3.55
2018-01-21T09:54:45.748Z,3.48
2018-01-21T09:57:13.233Z,3.29
2018-01-21T09:59:40.656Z,3.29
2018-01-21T10:02:08.440Z,3.04
2018-01-21T10:04:35.885Z,3.00
2018-01-21T10:07:03.353Z,3.03
2018-01-21T10:09:31.124Z,3.01
2018-01-21T10:11:58.588Z,3.08
2018-01-21T10:14:26.057Z,3.09
2018-01-21T10:16:53.838Z,2.96
2018-01-21T10:19:21.304Z,2.98
2018-01-21T10:21:48.764Z,2.91
2018-01-21T10:24:17.119Z,2.91
2018-01-21T10:26:44.569Z,2.90
2018-01-21T10:29:12.030Z,2.95
2018-01-21T10:31:39.797Z,2.86
2018-01-21T10:34:07.240Z,2.90
2018-01-21T10:36:34.689Z,2.87
2018-01-21T10:39:02.480Z,2.97
2018-01-21T10:41:29.920Z,2.88
2018-01-21T10:43:57.374Z,2.91
2018-01-21T10:46:25.185Z,2.96
2018-01-21T10:48:52.647Z,2.84
2018-01-21T10:51:21.404Z,2.87
2018-01-21T10:53:49.413Z,2.90
2018-01-21T10:56:16.872Z,2.86
2018-01-21T10:58:44.337Z,2.93
2018-01-21T11:01:12.104Z,2.93
2018-01-21T11:03:39.594Z,2.89
2018-01-21T11:06:07.054Z,2.90
2018-01-21T11:08:34.784Z,3.01
2018-01-21T11:11:02.244Z,3.04
2018-01-21T11:13:29.706Z,2.97
2018-01-21T11:15:57.467Z,3.03
2018-01-21T11:18:24.932Z,3.04
2018-01-21T11:20:52.400Z,2.96
2018-01-21T11:23:20.152Z,3.04
2018-01-21T11:25:47.617Z,3.03
2018-01-21T11:28:15.081Z,2.93
2018-01-21T11:30:42.840Z,2.80
2018-01-21T11:33:10.285Z,2.78
2018-01-21T11:35:37.754Z,2.80
2018-01-21T11:38:05.463Z,2.81
2018-01-21T11:40:32.902Z,2.80
2018-01-21T11:43:00.379Z,2.72
2018-01-21T11:45:28.208Z,2.75
2018-01-21T11:47:55.666Z,2.71
2018-01-21T11:50:23.125Z,2.66
2018-01-21T11:52:51.210Z,2.61
2018-01-21T11:55:18.668Z,2.57
2018-01-21T11:57:46.129Z,2.62
2018-01-21T12:00:13.870Z,2.67
2018-01-21T12:02:41.317Z,2.56
2018-01-21T12:05:08.772Z,2.64
2018-01-21T12:07:36.569Z,2.62
2018-01-21T12:10:04.021Z,2.53
2018-01-21T12:12:31.473Z,2.49
2018-01-21T12:14:59.204Z,2.51
2018-01-21T12:17:26.650Z,2.47
2018-01-21T12:19:54.105Z,2.44
2018-01-21T12:22:21.946Z,2.49
2018-01-21T12:24:49.397Z,2.51
2018-01-21T12:27:16.853Z,2.58
2018-01-21T12:29:44.651Z,2.52
2018-01-21T12:32:12.108Z,2.51
2018-01-21T12:34:39.561Z,2.51
2018-01-21T12:37:07.339Z,2.58
2018-01-21T12:39:34.787Z,2.55
2018-01-21T12:42:02.252Z,2.50
2018-01-21T12:44:30.009Z,2.43
2018-01-21T12:46:57.467Z,2.44
2018-01-21T12:49:24.917Z,2.43
2018-01-21T12:51:52.692Z,2.42
2018-01-21T12:54:20.854Z,2.47
2018-01-21T12:56:48.310Z,2.46
2018-01-21T12:59:15.995Z,2.42
2018-01-21T13:01:43.437Z,2.43
2018-01-21T13:04:10.889Z,2.47
2018-01-21T13:06:38.681Z,2.48
2018-01-21T13:09:06.136Z,2.46
2018-01-21T13:11:34.308Z,2.41
2018-01-21T13:14:02.609Z,2.41
2018-01-21T13:16:30.274Z,2.41
2018-01-21T13:18:58.086Z,2.36
2018-01-21T13:21:26.165Z,2.28
2018-01-21T13:23:54.044Z,2.31
2018-01-21T13:26:21.793Z,2.31
2018-01-21T13:28:50.125Z,2.25
2018-01-21T13:31:18.232Z,2.24
2018-01-21T13:33:45.980Z,2.13
2018-01-21T13:36:14.090Z,2.16
2018-01-21T13:38:41.727Z,2.09
2018-01-21T13:41:09.178Z,2.08
2018-01-21T13:43:36.964Z,2.11
2018-01-21T13:46:04.417Z,2.04
2018-01-21T13:48:31.875Z,1.87
2018-01-21T13:50:59.712Z,1.91
2018-01-21T13:53:27.166Z,1.76
2018-01-21T13:55:55.359Z,1.94
2018-01-21T13:58:23.027Z,1.73
2018-01-21T14:00:50.512Z,1.79
2018-01-21T14:03:17.972Z,1.70
2018-01-21T14:05:46.026Z,1.59
2018-01-21T14:08:13.705Z,1.69
2018-01-21T14:10:41.576Z,1.72
2018-01-21T14:13:09.306Z,1.73
2018-01-21T14:15:37.027Z,1.82
2018-01-21T14:18:04.904Z,1.85
2018-01-21T14:20:32.760Z,1.93
2018-01-21T14:23:00.437Z,2.01
2018-01-21T14:25:28.161Z,2.07
2018-01-21T14:27:55.931Z,2.13
2018-01-21T14:30:23.402Z,2.13
2018-01-21T14:32:50.869Z,2.22
2018-01-21T14:35:18.604Z,2.28
2018-01-21T14:37:46.046Z,2.34
2018-01-21T14:40:13.551Z,2.41
2018-01-21T14:42:41.956Z,2.47
2018-01-21T14:45:09.439Z,2.43
2018-01-21T14:47:37.187Z,2.59
2018-01-21T14:50:05.280Z,2.67
2018-01-21T14:52:32.993Z,2.66
2018-01-21T14:55:00.453Z,2.69
2018-01-21T14:57:29.029Z,2.68
2018-01-21T14:59:56.748Z,2.69
2018-01-21T15:02:24.660Z,2.75
2018-01-21T15:04:52.734Z,2.73
2018-01-21T15:07:20.809Z,2.73
2018-01-21T15:09:48.248Z,2.77
2018-01-21T15:12:16.604Z,2.62
2018-01-21T15:14:44.080Z,2.70
2018-01-21T15:17:11.578Z,2.71
2018-01-21T15:19:39.338Z,2.71
2018-01-21T15:22:07.687Z,2.57
2018-01-21T15:24:36.310Z,2.66
2018-01-21T15:27:04.172Z,2.68
2018-01-21T15:29:31.632Z,2.70
2018-01-21T15:31:59.804Z,2.56
2018-01-21T15:34:28.304Z,2.65
2018-01-21T15:36:56.327Z,2.59
2018-01-21T15:39:24.262Z,2.55
2018-01-21T15:41:52.630Z,2.51
2018-01-21T15:44:20.568Z,2.51
2018-01-21T15:46:48.851Z,2.49
2018-01-21T15:49:17.098Z,2.50
2018-01-21T15:51:45.088Z,2.56
2018-01-21T15:54:13.172Z,2.54
2018-01-21T15:56:41.157Z,2.52
2018-01-21T15:59:11.530Z,2.52
2018-01-21T16:01:40.019Z,2.52
2018-01-21T16:04:08.361Z,2.50
2018-01-21T16:06:36.512Z,2.55
2018-01-21T16:09:04.399Z,2.56
2018-01-21T16:11:32.152Z,2.54
2018-01-21T16:13:59.963Z,2.53
2018-01-21T16:16:28.009Z,2.48
2018-01-21T16:18:56.509Z,2.52
2018-01-21T16:21:24.442Z,2.58
2018-01-21T16:23:52.524Z,2.66
2018-01-21T16:26:21.038Z,2.57
2018-01-21T16:28:48.603Z,2.51
2018-01-21T16:31:16.714Z,2.47
2018-01-21T16:33:44.948Z,2.45
2018-01-21T16:36:16.091Z,2.43
2018-01-21T16:39:02.614Z,2.40
2018-01-21T16:41:30.396Z,2.41
2018-01-21T16:43:58.144Z,2.43
2018-01-21T16:46:26.329Z,2.31
2018-01-21T16:48:54.588Z,2.31
2018-01-21T16:51:22.043Z,2.32
2018-01-21T16:53:50.132Z,2.24
2018-01-21T16:56:17.913Z,2.22
2018-01-21T16:58:45.741Z,2.22
2018-01-21T17:01:14.977Z,2.16
2018-01-21T17:03:42.800Z,2.21
2018-01-21T17:06:10.649Z,2.09
2018-01-21T17:08:39.260Z,2.11
2018-01-21T17:11:06.797Z,2.17
2018-01-21T17:13:34.423Z,2.22
2018-01-21T17:16:02.209Z,2.15
2018-01-21T17:18:29.669Z,2.17
2018-01-21T17:20:57.683Z,2.17
2018-01-21T17:23:25.785Z,2.15
2018-01-21T17:25:54.136Z,2.19
2018-01-21T17:28:21.921Z,2.22
2018-01-21T17:30:49.705Z,2.18
2018-01-21T17:33:17.170Z,2.12
2018-01-21T17:35:44.633Z,2.15
2018-01-21T17:38:12.727Z,2.20
2018-01-21T17:40:40.219Z,2.18
2018-01-21T17:43:07.673Z,2.17
2018-01-21T17:45:36.009Z,2.25
2018-01-21T17:48:03.462Z,2.20
2018-01-21T17:50:31.525Z,2.19
2018-01-21T17:52:59.952Z,2.20
2018-01-21T17:55:27.908Z,2.18
2018-01-21T17:57:56.109Z,2.13
2018-01-21T18:00:24.403Z,2.16
2018-01-21T18:02:52.792Z,2.17
2018-01-21T18:05:20.772Z,2.24
2018-01-21T18:07:49.187Z,2.13
2018-01-21T18:10:16.793Z,2.22
2018-01-21T18:12:44.833Z,2.14
2018-01-21T18:15:13.336Z,2.14
2018-01-21T18:17:41.516Z,2.23
2018-01-21T18:20:09.526Z,2.25
2018-01-21T18:22:38.040Z,2.27
2018-01-21T18:25:05.496Z,2.21
2018-01-21T18:27:32.945Z,2.25
2018-01-21T18:30:00.726Z,2.29
2018-01-21T18:32:28.178Z,2.26
2018-01-21T18:34:55.632Z,2.26
2018-01-21T18:37:23.625Z,2.35
2018-01-21T18:39:51.076Z,2.34
2018-01-21T18:42:18.554Z,2.24
2018-01-21T18:44:46.385Z,2.33
2018-01-21T18:47:13.850Z,2.36
2018-01-21T18:49:41.316Z,2.30
2018-01-21T18:52:09.098Z,2.26
2018-01-21T18:54:36.572Z,2.41
2018-01-21T18:57:04.034Z,2.37
2018-01-21T18:59:32.086Z,2.35
2018-01-21T19:01:59.552Z,2.31
2018-01-21T19:04:27.640Z,2.61
2018-01-21T19:06:55.697Z,2.35
2018-01-21T19:09:23.206Z,2.35
2018-01-21T19:11:51.230Z,2.30
2018-01-21T19:14:19.080Z,2.29
2018-01-21T19:16:46.543Z,2.27
2018-01-21T19:19:14.179Z,2.18
2018-01-21T19:21:42.026Z,2.22
2018-01-21T19:24:09.485Z,2.23
2018-01-21T19:26:37.142Z,2.17
2018-01-21T19:29:05.321Z,2.05
2018-01-21T19:31:32.770Z,2.07
2018-01-21T19:34:00.224Z,2.10
2018-01-21T19:36:27.988Z,2.21
2018-01-21T19:42:02.537Z,2.06
2018-01-21T19:44:30.511Z,2.15
2018-01-21T19:46:58.139Z,2.16
2018-01-21T19:49:26.015Z,2.15
2018-01-21T19:51:53.532Z,2.09
2018-01-21T19:54:20.991Z,2.09
2018-01-21T20:03:32.532Z,2.03
2018-01-21T20:06:00.349Z,2.03
2018-01-21T20:08:27.832Z,1.99
2018-01-21T20:10:55.632Z,2.07
2018-01-21T20:13:23.090Z,1.97
2018-01-21T20:15:50.544Z,2.05
2018-01-21T20:18:18.512Z,1.94
2018-01-21T20:20:45.987Z,1.98
2018-01-21T20:23:13.465Z,1.97
2018-01-21T20:25:41.489Z,1.96
2018-01-21T20:28:08.957Z,1.94
2018-01-21T20:30:36.415Z,1.88
2018-01-21T20:33:04.169Z,1.96
2018-01-21T20:35:31.629Z,1.96
2018-01-21T20:37:59.101Z,1.94
2018-01-21T20:40:26.847Z,1.85
2018-01-21T20:42:54.302Z,1.85
2018-01-21T20:45:21.861Z,1.91
2018-01-21T20:47:49.555Z,1.91
2018-01-21T20:50:17.056Z,1.83
2018-01-21T20:52:47.215Z,1.79
2018-01-21T20:55:15.026Z,1.80
2018-01-21T20:57:42.983Z,1.79
2018-01-21T21:00:10.579Z,1.70
2018-01-21T21:02:38.320Z,1.69
2018-01-21T21:05:05.802Z,1.77
2018-01-21T21:07:33.597Z,1.78
2018-01-21T21:10:01.285Z,1.62
2018-01-21T21:12:28.736Z,1.59
2018-01-21T21:14:56.192Z,1.53
2018-01-21T21:17:23.978Z,1.55
2018-01-21T21:19:51.459Z,1.52
2018-01-21T21:22:20.006Z,1.49
2018-01-21T21:24:47.884Z,1.50
2018-01-21T21:27:15.347Z,1.50
2018-01-21T21:29:42.793Z,1.44
2018-01-21T21:32:10.588Z,1.41
2018-01-21T21:34:38.065Z,1.42
2018-01-21T21:37:05.526Z,1.33
2018-01-21T21:39:33.285Z,1.43
2018-01-21T21:42:00.745Z,1.41
2018-01-21T21:44:28.196Z,1.30
2018-01-21T21:46:55.784Z,1.33
2018-01-21T21:49:23.236Z,1.33
2018-01-21T21:51:50.699Z,1.38
2018-01-21T21:54:18.960Z,1.34
2018-01-21T21:56:46.414Z,1.31
2018-01-21T21:59:13.864Z,1.40
2018-01-21T22:01:41.953Z,1.35
2018-01-21T22:04:09.408Z,1.27
2018-01-21T22:06:36.869Z,1.15
2018-01-21T22:09:06.473Z,1.10
2018-01-21T22:11:33.922Z,1.13
2018-01-21T22:14:01.394Z,1.06
2018-01-21T22:16:29.011Z,1.10
2018-01-21T22:18:56.476Z,1.08
2018-01-21T22:21:24.127Z,1.04
2018-01-21T22:23:51.858Z,0.96
2018-01-21T22:26:19.312Z,0.89
2018-01-21T22:28:46.760Z,0.88
2018-01-21T22:31:14.532Z,0.89
2018-01-21T22:33:41.980Z,0.88
2018-01-21T22:36:09.428Z,0.88
2018-01-21T22:38:37.220Z,0.76
2018-01-21T22:41:04.669Z,0.69
2018-01-21T22:43:32.124Z,0.68
2018-01-21T22:45:59.919Z,0.49
2018-01-21T22:48:27.372Z,0.45
2018-01-21T22:50:54.820Z,0.39
2018-01-21T22:53:22.600Z,0.28
2018-01-21T22:55:50.076Z,0.27
2018-01-21T22:58:17.529Z,0.37
2018-01-21T23:00:45.586Z,0.20
2018-01-21T23:03:13.031Z,0.16
2018-01-21T23:05:40.489Z,0.08
2018-01-21T23:08:08.328Z,0.08
2018-01-21T23:10:36.318Z,0.12
2018-01-21T23:13:03.770Z,0.19
2018-01-21T23:15:31.449Z,0.13
2018-01-21T23:17:58.900Z,0.15
2018-01-21T23:20:38.485Z,0.13
2018-01-21T23:23:05.944Z,0.28
2018-01-21T23:25:33.404Z,-0.05
2018-01-21T23:28:01.161Z,0.04
2018-01-21T23:30:28.624Z,0.05
2018-01-21T23:32:56.089Z,0.10
2018-01-21T23:35:25.088Z,0.08
2018-01-21T23:37:52.638Z,0.12
2018-01-21T23:40:20.119Z,0.07
2018-01-21T23:42:48.076Z,0.13
2018-01-21T23:45:15.525Z,0.12
2018-01-21T23:47:43.005Z,0.20
2018-01-21T23:50:10.760Z,0.15
2018-01-21T23:52:38.226Z,0.19
2018-01-21T23:55:05.694Z,0.19
2018-01-21T23:57:33.453Z,0.20
